Time;durP1;ratioP1;P1;durP2;ratioP2;P2;SDS_P1;SDS_P2;PMS_P1;PMS_P2;Temp;Humidity;BMP_temperature;BMP_pressure;BME280_temperature;BME280_humidity;BME280_pressure;Samples;Min_cycle;Max_cycle;Signal;HPM_P1;HPM_P2
2023/05/18 00:00:22;;;;;;;;;;;;;;;11.85;35.88;101634.97;4963150;27;105923;-64
2023/05/18 00:02:48;;;;;;;;;;;;;;;11.86;35.89;101635.78;4947032;27;98076;-68
2023/05/18 00:05:16;;;;;;;;;;;;;;;11.84;35.94;101632.53;4931137;27;98106;-69
2023/05/18 00:07:43;;;;;;;;;;;;;;;11.84;35.61;101629.84;4941397;27;98285;-64
2023/05/18 00:10:10;;;;;;;;;;;;;;;11.85;35.95;101637.69;4944852;27;97962;-68
2023/05/18 00:12:36;;;;;;;;;;;;;;;11.84;35.71;101640.63;4946377;27;98221;-64
2023/05/18 00:15:03;;;;;;;;;;;;;;;11.83;35.80;101639.81;4941066;27;99254;-68
2023/05/18 00:17:30;;;;;;;;;;;;;;;11.83;35.87;101647.94;4944281;27;97875;-68
2023/05/18 00:19:57;;;;;;;;;;;;;;;11.84;36.05;101641.44;4941040;27;97837;-68
2023/05/18 00:22:25;;;;;;;;;;;;;;;11.84;35.74;101638.75;4945991;27;99258;-64
2023/05/18 00:24:51;;;;;;;;;;;;;;;11.84;35.75;101641.44;4963194;27;98060;-68
2023/05/18 00:27:17;;;;;;;;;;;;;;;11.83;35.76;101642.53;4943265;27;98170;-64
2023/05/18 00:29:43;;;;;;;;;;;;;;;11.80;35.92;101649.19;4964332;27;118325;-68
2023/05/18 00:32:09;;;;;;;;;;;;;;;11.81;35.93;101655.41;4940424;27;99690;-64
2023/05/18 00:34:36;;;;;;;;;;;;;;;11.79;35.66;101650.28;4949180;27;97970;-67
2023/05/18 00:37:02;;;;;;;;;;;;;;;11.79;36.07;101657.56;4944167;27;98240;-64
2023/05/18 00:39:27;;;;;;;;;;;;;;;11.76;35.96;101649.94;4949379;27;98579;-67
2023/05/18 00:41:53;;;;;;;;;;;;;;;11.76;35.91;101655.34;4943021;27;122365;-67
2023/05/18 00:44:20;;;;;;;;;;;;;;;11.74;36.02;101657.47;4943387;28;97989;-64
2023/05/18 00:46:46;;;;;;;;;;;;;;;11.72;35.79;101656.91;4944724;28;98104;-68
2023/05/18 00:49:12;;;;;;;;;;;;;;;11.70;36.28;101659.00;4948180;27;98436;-64
2023/05/18 00:51:38;;;;;;;;;;;;;;;11.68;35.95;101661.16;4943839;27;98272;-64
2023/05/18 00:54:05;;;;;;;;;;;;;;;11.66;36.11;101668.69;4947411;27;98242;-64
2023/05/18 00:56:34;;;;;;;;;;;;;;;11.61;35.96;101664.00;4950636;27;98717;-68
2023/05/18 00:59:01;;;;;;;;;;;;;;;11.59;35.83;101663.44;4950226;27;98070;-68
2023/05/18 01:01:33;;;;;;;;;;;;;;;11.57;35.96;101665.56;4963076;27;98395;-68
2023/05/18 01:04:02;;;;;;;;;;;;;;;11.55;35.92;101673.09;4948975;28;98047;-68
2023/05/18 01:06:34;;;;;;;;;;;;;;;11.53;35.85;101672.53;4946159;27;98432;-64
2023/05/18 01:09:03;;;;;;;;;;;;;;;11.52;35.95;101674.41;4950377;28;98192;-64
2023/05/18 01:11:37;;;;;;;;;;;;;;;11.51;35.97;101674.63;4964908;27;99512;-64
2023/05/18 01:14:10;;;;;;;;;;;;;;;11.49;36.01;101677.59;4961649;27;98200;-68
2023/05/18 01:16:40;;;;;;;;;;;;;;;11.46;36.02;101675.38;4964956;27;98321;-68
2023/05/18 01:19:19;;;;;;;;;;;;;;;11.47;36.13;101682.41;4934015;27;98411;-64
2023/05/18 01:22:21;;;;;;;;;;;;;;;11.46;35.88;101678.06;4945751;27;97928;-64
2023/05/18 01:24:48;;;;;;;;;;;;;;;11.43;36.03;101678.56;4958153;27;98406;-68
2023/05/18 01:27:16;;;;;;;;;;;;;;;11.41;35.88;101678.00;4947073;27;98343;-68
2023/05/18 01:29:43;;;;;;;;;;;;;;;11.38;36.00;101685.75;4943905;27;98408;-69
2023/05/18 01:32:14;;;;;;;;;;;;;;;11.32;35.77;101682.16;4948787;27;99226;-68
2023/05/18 01:34:40;;;;;;;;;;;;;;;11.29;36.25;101693.44;4965626;27;98123;-64
2023/05/18 01:37:06;;;;;;;;;;;;;;;11.25;36.06;101692.28;4932825;28;99984;-68
2023/05/18 01:39:33;;;;;;;;;;;;;;;11.22;35.85;101690.06;4949193;27;99158;-67
2023/05/18 01:42:03;;;;;;;;;;;;;;;11.19;36.08;101693.25;4944373;27;98018;-64
2023/05/18 01:44:40;;;;;;;;;;;;;;;11.15;36.04;101698.28;4979761;27;98038;-68
2023/05/18 01:47:15;;;;;;;;;;;;;;;11.09;36.02;101693.88;4959125;28;97945;-64
2023/05/18 01:49:41;;;;;;;;;;;;;;;11.04;35.81;101694.59;4947576;28;98132;-68
2023/05/18 01:52:10;;;;;;;;;;;;;;;11.01;36.24;101702.34;4959709;27;99250;-64
2023/05/18 01:54:36;;;;;;;;;;;;;;;10.93;36.14;101697.34;4967516;27;99101;-65
2023/05/18 01:57:02;;;;;;;;;;;;;;;10.85;36.57;101703.13;4947934;27;99473;-65
2023/05/18 01:59:29;;;;;;;;;;;;;;;10.76;36.55;101705.34;4960715;27;99041;-64
2023/05/18 02:02:00;;;;;;;;;;;;;;;10.66;35.95;101700.56;4947190;27;98410;-65
2023/05/18 02:04:26;;;;;;;;;;;;;;;10.59;36.42;101707.97;4947646;27;98088;-65
2023/05/18 02:06:54;;;;;;;;;;;;;;;10.52;36.23;101705.41;4947158;27;98381;-65
2023/05/18 02:09:20;;;;;;;;;;;;;;;10.48;36.63;101703.41;4964470;27;98392;-68
2023/05/18 02:11:47;;;;;;;;;;;;;;;10.42;36.33;101707.06;4944395;27;98321;-69
2023/05/18 02:14:14;;;;;;;;;;;;;;;10.32;36.52;101705.78;4941682;28;98082;-68
2023/05/18 02:16:40;;;;;;;;;;;;;;;10.25;36.52;101705.06;4943976;27;98211;-64
2023/05/18 02:19:06;;;;;;;;;;;;;;;10.19;36.37;101710.56;4963139;27;98146;-64
2023/05/18 02:21:36;;;;;;;;;;;;;;;10.15;36.17;101706.69;4960577;28;97842;-65
2023/05/18 02:24:03;;;;;;;;;;;;;;;10.12;36.20;101699.06;4948152;27;99280;-68
2023/05/18 02:26:29;;;;;;;;;;;;;;;10.09;36.55;101703.88;4942648;27;97883;-68
2023/05/18 02:28:56;;;;;;;;;;;;;;;10.06;36.31;101704.34;4946334;28;99491;-64
2023/05/18 02:31:22;;;;;;;;;;;;;;;10.05;36.61;101709.97;4942468;27;97930;-68
2023/05/18 02:33:49;;;;;;;;;;;;;;;9.98;36.29;101707.41;4950280;28;98024;-64
2023/05/18 02:36:17;;;;;;;;;;;;;;;9.92;36.66;101705.63;4941517;27;98084;-64
2023/05/18 02:38:43;;;;;;;;;;;;;;;9.88;35.91;101709.03;4943897;27;98092;-68
2023/05/18 02:41:10;;;;;;;;;;;;;;;9.84;36.34;101711.34;4949493;27;98026;-68
2023/05/18 02:43:36;;;;;;;;;;;;;;;9.79;36.41;101713.94;4961440;27;98042;-64
2023/05/18 02:46:03;;;;;;;;;;;;;;;9.75;36.22;101718.16;4946902;27;98318;-64
2023/05/18 02:48:29;;;;;;;;;;;;;;;9.72;36.62;101726.69;4942793;27;98216;-65
2023/05/18 02:50:55;;;;;;;;;;;;;;;9.68;36.63;101725.50;4939558;27;98137;-64
2023/05/18 02:53:22;;;;;;;;;;;;;;;9.61;36.61;101728.28;4947754;28;98048;-68
2023/05/18 02:55:48;;;;;;;;;;;;;;;9.57;36.11;101730.63;4944082;27;100278;-68
2023/05/18 02:58:16;;;;;;;;;;;;;;;9.52;36.50;101730.50;4945215;27;98258;-64
2023/05/18 03:00:43;;;;;;;;;;;;;;;9.47;36.55;101738.44;4946373;27;98516;-68
2023/05/18 03:03:14;;;;;;;;;;;;;;;9.42;36.15;101740.97;4949958;28;98215;-64
2023/05/18 03:05:41;;;;;;;;;;;;;;;9.36;37.06;101744.59;4965057;28;98401;-67
2023/05/18 03:08:09;;;;;;;;;;;;;;;9.33;36.24;101745.03;4941785;27;97919;-68
2023/05/18 03:10:36;;;;;;;;;;;;;;;9.28;36.65;101745.72;4943141;28;98032;-68
2023/05/18 03:13:02;;;;;;;;;;;;;;;9.25;36.26;101746.19;4963279;28;97906;-64
2023/05/18 03:15:31;;;;;;;;;;;;;;;9.22;36.88;101746.63;4940213;27;98367;-65
2023/05/18 03:18:00;;;;;;;;;;;;;;;9.18;36.14;101756.19;4968104;27;97895;-65
2023/05/18 03:20:28;;;;;;;;;;;;;;;9.13;36.42;101747.19;4942127;28;98454;-64
2023/05/18 03:22:54;;;;;;;;;;;;;;;9.07;36.31;101755.09;4942641;28;98851;-67
2023/05/18 03:25:24;;;;;;;;;;;;;;;9.04;36.56;101754.75;4945644;27;98050;-69
2023/05/18 03:27:52;;;;;;;;;;;;;;;9.02;36.52;101760.34;4940367;28;98345;-68
2023/05/18 03:30:19;;;;;;;;;;;;;;;8.99;36.64;101762.66;4947735;27;100577;-64
2023/05/18 03:32:46;;;;;;;;;;;;;;;8.96;36.54;101768.47;4942149;27;98239;-68
2023/05/18 03:35:13;;;;;;;;;;;;;;;8.94;36.66;101765.19;4962426;28;98360;-68
2023/05/18 03:37:39;;;;;;;;;;;;;;;8.93;36.29;101769.75;4947214;27;98175;-68
2023/05/18 03:40:13;;;;;;;;;;;;;;;8.93;36.20;101769.75;4941529;27;98012;-65
2023/05/18 03:42:40;;;;;;;;;;;;;;;8.91;36.64;101765.66;4943020;28;98176;-64
2023/05/18 03:45:09;;;;;;;;;;;;;;;8.89;36.97;101773.13;4944568;27;98098;-68
2023/05/18 03:47:36;;;;;;;;;;;;;;;8.85;36.14;101776.25;4939765;27;100784;-64
2023/05/18 03:50:03;;;;;;;;;;;;;;;8.84;36.27;101769.25;4959597;27;98139;-66
2023/05/18 03:52:29;;;;;;;;;;;;;;;8.83;36.25;101772.97;4947519;27;98122;-64
2023/05/18 03:54:55;;;;;;;;;;;;;;;8.83;36.72;101770.28;4948299;27;98313;-64
2023/05/18 03:57:22;;;;;;;;;;;;;;;8.82;36.50;101768.63;4945310;28;99250;-68
2023/05/18 03:59:49;;;;;;;;;;;;;;;8.83;36.49;101775.66;4941419;27;98074;-64
2023/05/18 04:02:15;;;;;;;;;;;;;;;8.85;36.52;101775.44;4976108;27;98102;-68
2023/05/18 04:04:44;;;;;;;;;;;;;;;8.86;36.91;101777.06;4963784;27;98045;-68
2023/05/18 04:07:11;;;;;;;;;;;;;;;8.88;36.55;101780.34;4946714;27;98284;-68
2023/05/18 04:09:38;;;;;;;;;;;;;;;8.88;36.89;101780.34;4951854;27;98256;-68
2023/05/18 04:12:04;;;;;;;;;;;;;;;8.90;36.89;101782.84;4949108;27;98249;-68
2023/05/18 04:14:34;;;;;;;;;;;;;;;8.94;36.45;101778.66;4952840;27;98353;-64
2023/05/18 04:17:05;;;;;;;;;;;;;;;8.94;36.77;101778.66;4936371;28;98149;-65
2023/05/18 04:19:35;;;;;;;;;;;;;;;8.96;36.40;101777.38;4962369;28;99483;-68
2023/05/18 04:22:04;;;;;;;;;;;;;;;8.97;36.80;101781.72;4933952;28;98391;-64
2023/05/18 04:24:36;;;;;;;;;;;;;;;8.97;36.56;101780.91;4931530;27;98004;-64
2023/05/18 04:27:02;;;;;;;;;;;;;;;8.97;36.28;101786.28;4949847;28;98592;-64
2023/05/18 04:29:29;;;;;;;;;;;;;;;9.00;36.91;101780.41;4943732;28;98000;-64
2023/05/18 04:31:59;;;;;;;;;;;;;;;9.02;36.67;101784.53;4945007;28;98570;-64
2023/05/18 04:34:27;;;;;;;;;;;;;;;9.06;36.45;101780.34;4947045;27;98085;-64
2023/05/18 04:36:54;;;;;;;;;;;;;;;9.12;36.17;101780.50;4948796;27;98072;-68
2023/05/18 04:39:22;;;;;;;;;;;;;;;9.18;36.93;101787.66;4962085;27;98152;-68
2023/05/18 04:41:57;;;;;;;;;;;;;;;9.26;36.36;101792.75;4980719;27;98066;-67
2023/05/18 04:44:28;;;;;;;;;;;;;;;9.34;36.55;101790.56;4943407;28;99928;-68
2023/05/18 04:46:55;;;;;;;;;;;;;;;9.44;37.02;101789.22;4947105;28;106740;-68
2023/05/18 04:49:21;;;;;;;;;;;;;;;9.52;36.67;101795.09;4944921;27;98022;-64
2023/05/18 04:51:49;;;;;;;;;;;;;;;9.60;36.69;101796.66;4948715;27;98013;-68
2023/05/18 04:54:15;;;;;;;;;;;;;;;9.70;36.01;101794.19;4946222;27;98365;-68
2023/05/18 04:56:41;;;;;;;;;;;;;;;9.79;36.25;101802.81;4963406;27;100001;-68
2023/05/18 04:59:09;;;;;;;;;;;;;;;9.90;36.83;101806.56;4948666;28;98265;-64
2023/05/18 05:01:38;;;;;;;;;;;;;;;9.99;36.47;101803.31;4927472;27;98292;-64
2023/05/18 05:04:05;;;;;;;;;;;;;;;10.14;36.23;101800.19;4959412;27;97987;-68
2023/05/18 05:06:31;;;;;;;;;;;;;;;10.30;36.26;101798.72;4961727;27;98281;-68
2023/05/18 05:08:57;;;;;;;;;;;;;;;10.44;36.41;101802.81;4962764;27;99750;-68
2023/05/18 05:11:24;;;;;;;;;;;;;;;10.54;35.88;101796.84;4926146;27;98089;-64
2023/05/18 05:13:50;;;;;;;;;;;;;;;10.66;36.13;101794.16;4946309;27;99955;-64
2023/05/18 05:16:16;;;;;;;;;;;;;;;10.81;35.82;101800.69;4942352;27;103809;-67
2023/05/18 05:18:42;;;;;;;;;;;;;;;10.97;35.90;101801.03;4957917;27;98264;-67
2023/05/18 05:21:08;;;;;;;;;;;;;;;11.13;35.60;101802.16;4945035;27;99441;-68
2023/05/18 05:23:34;;;;;;;;;;;;;;;11.29;35.45;101806.81;4942167;27;98390;-68
2023/05/18 05:26:01;;;;;;;;;;;;;;;11.45;35.26;101803.34;4946661;27;100200;-68
2023/05/18 05:28:27;;;;;;;;;;;;;;;11.63;35.47;101806.91;4939726;27;98193;-65
2023/05/18 05:30:53;;;;;;;;;;;;;;;11.82;35.41;101794.00;4940930;27;98076;-65
2023/05/18 05:33:19;;;;;;;;;;;;;;;11.97;35.42;101799.72;4944059;28;98579;-69
2023/05/18 05:35:46;;;;;;;;;;;;;;;12.17;35.57;101805.44;4941594;27;98443;-68
2023/05/18 05:38:12;;;;;;;;;;;;;;;12.36;35.46;101794.41;4937827;28;103513;-68
2023/05/18 05:40:38;;;;;;;;;;;;;;;12.57;35.25;101792.81;4960470;28;98117;-68
2023/05/18 05:43:05;;;;;;;;;;;;;;;12.80;35.15;101802.59;4944078;28;98431;-64
2023/05/18 05:45:31;;;;;;;;;;;;;;;13.05;35.16;101802.94;4940744;27;98121;-64
2023/05/18 05:47:57;;;;;;;;;;;;;;;13.19;34.96;101798.78;4957348;27;98096;-64
2023/05/18 05:50:23;;;;;;;;;;;;;;;13.27;35.14;101802.97;4954032;27;98234;-67
2023/05/18 05:52:49;;;;;;;;;;;;;;;13.53;34.94;101804.06;4940809;27;98103;-69
2023/05/18 05:55:15;;;;;;;;;;;;;;;13.69;34.94;101803.16;4940822;28;98110;-68
2023/05/18 05:57:42;;;;;;;;;;;;;;;13.75;35.35;101799.44;4943054;27;98031;-68
2023/05/18 06:00:11;;;;;;;;;;;;;;;13.91;35.39;101808.53;4945636;28;98268;-68
2023/05/18 06:02:38;;;;;;;;;;;;;;;14.42;35.05;101806.22;4942233;27;100565;-65
2023/05/18 06:05:06;;;;;;;;;;;;;;;15.01;34.66;101802.50;4942535;27;98135;-65
2023/05/18 06:07:32;;;;;;;;;;;;;;;15.57;34.00;101805.41;4939948;27;98182;-68
2023/05/18 06:09:58;;;;;;;;;;;;;;;15.59;34.25;101797.81;4961408;27;98335;-68
2023/05/18 06:12:24;;;;;;;;;;;;;;;16.43;33.72;101792.97;4931673;27;98900;-69
2023/05/18 06:14:56;;;;;;;;;;;;;;;16.56;33.67;101791.59;4922298;28;98600;-68
2023/05/18 06:17:25;;;;;;;;;;;;;;;16.55;34.04;101796.22;4942226;28;99881;-65
2023/05/18 06:19:51;;;;;;;;;;;;;;;16.57;34.03;101801.38;4924567;28;98204;-68
2023/05/18 06:22:17;;;;;;;;;;;;;;;16.85;34.11;101794.53;4932895;27;99458;-69
2023/05/18 06:24:43;;;;;;;;;;;;;;;17.26;33.72;101803.34;4938617;28;98378;-69
2023/05/18 06:27:10;;;;;;;;;;;;;;;17.37;33.91;101788.59;4955310;28;98163;-69
2023/05/18 06:29:36;;;;;;;;;;;;;;;17.64;33.71;101790.88;4940699;28;98333;-68
2023/05/18 06:32:03;;;;;;;;;;;;;;;17.94;33.62;101796.41;4943643;28;98428;-68
2023/05/18 06:34:29;;;;;;;;;;;;;;;18.15;33.52;101803.31;4942764;28;98238;-65
2023/05/18 06:36:55;;;;;;;;;;;;;;;18.37;33.45;101795.50;4956944;28;100274;-65
2023/05/18 06:39:21;;;;;;;;;;;;;;;18.61;33.36;101809.16;4939386;28;98336;-65
2023/05/18 06:41:50;;;;;;;;;;;;;;;18.79;33.42;101806.84;4972259;28;98700;-65
2023/05/18 06:44:16;;;;;;;;;;;;;;;18.97;33.39;101803.34;4941453;28;98737;-65
2023/05/18 06:46:42;;;;;;;;;;;;;;;19.18;33.38;101803.06;4941714;28;98362;-65
2023/05/18 06:49:08;;;;;;;;;;;;;;;19.20;33.53;101809.88;4935227;28;98328;-69
2023/05/18 06:51:35;;;;;;;;;;;;;;;19.23;33.43;101811.22;4940383;28;98142;-65
2023/05/18 06:54:02;;;;;;;;;;;;;;;19.28;33.32;101811.97;4943837;27;97983;-69
2023/05/18 06:56:28;;;;;;;;;;;;;;;19.32;33.58;101804.00;4943604;28;98353;-69
2023/05/18 06:58:54;;;;;;;;;;;;;;;19.38;33.52;101809.09;4928359;28;98134;-65
2023/05/18 07:01:20;;;;;;;;;;;;;;;19.49;33.44;101811.69;4943866;28;98207;-68
2023/05/18 07:03:46;;;;;;;;;;;;;;;19.68;33.45;101800.78;4957119;27;97995;-69
2023/05/18 07:06:12;;;;;;;;;;;;;;;19.87;33.30;101807.03;4956422;28;98927;-69
2023/05/18 07:08:39;;;;;;;;;;;;;;;20.03;33.20;101805.69;4954968;27;98144;-65
2023/05/18 07:11:05;;;;;;;;;;;;;;;20.15;33.21;101813.44;4937540;27;98187;-65
2023/05/18 07:13:31;;;;;;;;;;;;;;;20.27;33.36;101824.72;4954350;27;98282;-65
2023/05/18 07:15:57;;;;;;;;;;;;;;;20.41;33.35;101818.47;4959990;28;98410;-69
2023/05/18 07:18:25;;;;;;;;;;;;;;;20.55;33.25;101814.69;4940020;28;98105;-66
2023/05/18 07:20:51;;;;;;;;;;;;;;;20.70;33.26;101808.09;4939161;27;98061;-70
2023/05/18 07:23:17;;;;;;;;;;;;;;;20.91;33.18;101814.00;4943699;27;100192;-69
2023/05/18 07:25:43;;;;;;;;;;;;;;;21.12;33.15;101808.09;4939119;28;98156;-65
2023/05/18 07:28:09;;;;;;;;;;;;;;;21.33;32.89;101803.81;4941531;27;98295;-65
2023/05/18 07:30:36;;;;;;;;;;;;;;;21.56;32.83;101808.22;4937755;28;98276;-69
2023/05/18 07:33:02;;;;;;;;;;;;;;;21.80;32.69;101810.69;4924321;27;98190;-65
2023/05/18 07:35:28;;;;;;;;;;;;;;;22.10;32.58;101811.06;4942265;27;98564;-69
2023/05/18 07:37:54;;;;;;;;;;;;;;;22.47;32.46;101814.53;4943269;28;98428;-65
2023/05/18 07:40:20;;;;;;;;;;;;;;;22.56;32.39;101818.16;4954669;27;103455;-65
2023/05/18 07:42:46;;;;;;;;;;;;;;;22.16;32.96;101820.81;4942244;27;98425;-65
2023/05/18 07:45:12;;;;;;;;;;;;;;;21.75;33.38;101813.56;4945846;27;98194;-69
2023/05/18 07:47:39;;;;;;;;;;;;;;;21.58;33.47;101821.66;4941684;27;99929;-65
2023/05/18 07:50:05;;;;;;;;;;;;;;;21.47;33.45;101818.31;4923763;28;99979;-69
2023/05/18 07:52:31;;;;;;;;;;;;;;;21.81;32.95;101822.47;4943956;27;98690;-65
2023/05/18 07:54:58;;;;;;;;;;;;;;;21.99;32.99;101812.44;4944301;27;98702;-65
2023/05/18 07:57:24;;;;;;;;;;;;;;;22.14;32.74;101814.84;4923820;27;98029;-65
2023/05/18 07:59:51;;;;;;;;;;;;;;;22.64;32.10;101816.56;4923128;28;98169;-65
2023/05/18 08:02:18;;;;;;;;;;;;;;;22.98;32.12;101818.66;4938322;27;97971;-65
2023/05/18 08:04:45;;;;;;;;;;;;;;;23.77;31.50;101815.69;4936005;28;97872;-69
2023/05/18 08:07:11;;;;;;;;;;;;;;;24.68;31.09;101813.78;4921686;27;98459;-69
2023/05/18 08:09:37;;;;;;;;;;;;;;;25.66;30.77;101799.84;4938016;27;98466;-69
2023/05/18 08:12:04;;;;;;;;;;;;;;;25.62;30.87;101802.50;4936558;27;98360;-70
2023/05/18 08:14:31;;;;;;;;;;;;;;;25.94;30.91;101811.97;4954296;27;99106;-69
2023/05/18 08:16:57;;;;;;;;;;;;;;;27.42;29.71;101813.72;4955961;27;98466;-69
2023/05/18 08:19:24;;;;;;;;;;;;;;;28.52;29.28;101811.63;4937413;28;98212;-66
2023/05/18 08:21:50;;;;;;;;;;;;;;;27.65;30.13;101800.16;4936732;27;98326;-69
2023/05/18 08:24:16;;;;;;;;;;;;;;;29.21;29.24;101806.56;4934869;27;98268;-69
2023/05/18 08:26:43;;;;;;;;;;;;;;;30.41;28.60;101809.38;4942792;27;98261;-66
2023/05/18 08:29:09;;;;;;;;;;;;;;;31.44;28.21;101811.00;4941833;27;99961;-69
2023/05/18 08:31:36;;;;;;;;;;;;;;;32.10;28.16;101818.94;4943729;27;99889;-66
2023/05/18 08:34:03;;;;;;;;;;;;;;;32.65;27.74;101819.03;4957029;27;99433;-66
2023/05/18 08:36:33;;;;;;;;;;;;;;;33.04;27.77;101813.75;4943041;27;98054;-69
2023/05/18 08:38:59;;;;;;;;;;;;;;;33.52;28.26;101808.03;4953575;27;99669;-67
2023/05/18 08:41:27;;;;;;;;;;;;;;;34.12;28.04;101796.25;4935347;27;98371;-65
2023/05/18 08:44:00;;;;;;;;;;;;;;;34.86;27.61;101797.47;4943334;27;98143;-68
2023/05/18 08:46:34;;;;;;;;;;;;;;;33.81;28.76;101805.38;4940556;27;98252;-68
2023/05/18 08:49:02;;;;;;;;;;;;;;;32.12;30.08;101792.28;4940819;27;98212;-69
2023/05/18 08:51:29;;;;;;;;;;;;;;;30.45;31.11;101785.22;4942231;28;98419;-68
2023/05/18 08:53:55;;;;;;;;;;;;;;;32.46;29.27;101783.81;4958659;27;98311;-65
2023/05/18 08:56:22;;;;;;;;;;;;;;;34.12;27.98;101781.50;4943505;27;98376;-64
2023/05/18 08:58:51;;;;;;;;;;;;;;;34.47;27.97;101789.09;4943072;27;98615;-65
2023/05/18 09:01:17;;;;;;;;;;;;;;;33.54;28.95;101783.31;4947259;28;98457;-69
2023/05/18 09:03:44;;;;;;;;;;;;;;;33.98;28.71;101787.84;4931595;27;99065;-67
2023/05/18 09:06:11;;;;;;;;;;;;;;;33.35;29.01;101784.41;4956759;27;98396;-64
2023/05/18 09:08:37;;;;;;;;;;;;;;;30.78;31.19;101777.03;4941213;27;99193;-64
2023/05/18 09:11:03;;;;;;;;;;;;;;;29.28;32.22;101765.09;4939236;27;98343;-64
2023/05/18 09:13:30;;;;;;;;;;;;;;;28.81;32.38;101772.34;4943623;27;99154;-64
2023/05/18 09:15:56;;;;;;;;;;;;;;;28.01;32.69;101767.94;4945279;27;99692;-64
2023/05/18 09:18:22;;;;;;;;;;;;;;;26.90;33.34;101772.97;4959295;27;127836;-68
2023/05/18 09:20:48;;;;;;;;;;;;;;;26.03;33.61;101772.41;4926374;28;116029;-64
2023/05/18 09:23:16;;;;;;;;;;;;;;;25.30;33.72;101767.34;4944409;27;98500;-68
2023/05/18 09:25:45;;;;;;;;;;;;;;;24.85;33.97;101765.19;4959063;27;98119;-64
2023/05/18 09:28:38;;;;;;;;;;;;;;;27.43;31.12;101750.84;4959315;27;98046;-64
2023/05/18 09:31:08;;;;;;;;;;;;;;;29.92;29.29;101751.69;4957918;27;98732;-68
2023/05/18 09:33:38;;;;;;;;;;;;;;;31.60;28.09;101759.81;4944806;27;98466;-64
2023/05/18 09:36:05;;;;;;;;;;;;;;;33.12;27.72;101758.75;4976036;27;98374;-65
2023/05/18 09:38:38;;;;;;;;;;;;;;;33.94;27.07;101765.44;4937769;27;98269;-65
2023/05/18 09:41:08;;;;;;;;;;;;;;;34.07;27.54;101762.28;4943841;27;98048;-68
2023/05/18 09:43:35;;;;;;;;;;;;;;;34.85;27.10;101759.44;4944708;27;98326;-68
2023/05/18 09:46:04;;;;;;;;;;;;;;;34.65;27.36;101761.09;4946350;28;98179;-64
2023/05/18 09:48:30;;;;;;;;;;;;;;;34.72;27.82;101763.09;4940898;27;98230;-65
2023/05/18 09:50:58;;;;;;;;;;;;;;;34.01;28.72;101752.72;4943320;27;113054;-64
2023/05/18 09:53:25;;;;;;;;;;;;;;;32.04;30.09;101753.56;4958208;27;98247;-64
2023/05/18 09:55:51;;;;;;;;;;;;;;;31.52;30.34;101750.63;4938475;27;98068;-65
2023/05/18 09:58:17;;;;;;;;;;;;;;;31.48;29.87;101755.31;4945220;27;98785;-64
2023/05/18 10:00:45;;;;;;;;;;;;;;;31.43;30.00;101744.50;4955504;27;120400;-68
2023/05/18 10:03:22;;;;;;;;;;;;;;;31.33;30.16;101740.44;4958227;27;98118;-68
2023/05/18 10:05:49;;;;;;;;;;;;;;;31.18;30.15;101741.41;4945500;27;98096;-64
2023/05/18 10:08:15;;;;;;;;;;;;;;;31.24;29.92;101746.28;4938148;27;98025;-67
2023/05/18 10:10:45;;;;;;;;;;;;;;;31.90;29.30;101743.06;4947246;27;98449;-64
2023/05/18 10:13:16;;;;;;;;;;;;;;;33.44;28.18;101748.50;4925964;28;98373;-67
2023/05/18 10:15:50;;;;;;;;;;;;;;;34.06;27.66;101750.31;4945400;27;98536;-64
2023/05/18 10:18:20;;;;;;;;;;;;;;;34.44;27.61;101743.13;4957855;27;99712;-68
2023/05/18 10:20:47;;;;;;;;;;;;;;;33.79;28.23;101749.84;4943841;27;98501;-64
2023/05/18 10:23:16;;;;;;;;;;;;;;;33.90;28.43;101750.66;4944361;27;109406;-64
2023/05/18 10:25:43;;;;;;;;;;;;;;;33.37;28.74;101747.72;4941548;27;98088;-64
2023/05/18 10:28:09;;;;;;;;;;;;;;;33.69;28.43;101742.25;4953928;28;98606;-64
2023/05/18 10:30:35;;;;;;;;;;;;;;;33.92;28.65;101731.50;4912741;27;98172;-67
2023/05/18 10:33:01;;;;;;;;;;;;;;;34.02;28.18;101729.13;4941500;27;98885;-64
2023/05/18 10:35:28;;;;;;;;;;;;;;;31.89;30.16;101728.34;4936822;27;98743;-64
2023/05/18 10:37:54;;;;;;;;;;;;;;;31.43;30.41;101736.97;4926308;27;103752;-64
2023/05/18 10:40:20;;;;;;;;;;;;;;;30.97;30.57;101728.00;4935225;27;98234;-64
2023/05/18 10:42:47;;;;;;;;;;;;;;;29.92;31.50;101727.50;4908085;27;100277;-64
2023/05/18 10:45:14;;;;;;;;;;;;;;;29.50;31.33;101731.03;4944129;27;98509;-67
2023/05/18 10:47:42;;;;;;;;;;;;;;;30.47;30.31;101724.47;4951731;27;98300;-65
2023/05/18 10:50:08;;;;;;;;;;;;;;;31.53;29.49;101732.72;4964733;27;98489;-68
2023/05/18 10:52:36;;;;;;;;;;;;;;;32.55;28.83;101733.28;4955560;28;98051;-68
2023/05/18 10:55:03;;;;;;;;;;;;;;;33.07;28.28;101726.44;4944500;27;98609;-64
2023/05/18 10:57:39;;;;;;;;;;;;;;;33.74;28.21;101727.09;4936048;27;99755;-66
2023/05/18 11:00:08;;;;;;;;;;;;;;;34.00;28.16;101734.34;4961332;28;98863;-66
2023/05/18 11:02:34;;;;;;;;;;;;;;;33.21;28.97;101725.72;4926024;28;99965;-65
2023/05/18 11:05:00;;;;;;;;;;;;;;;34.04;28.09;101726.75;4960233;27;98098;-66
2023/05/18 11:07:29;;;;;;;;;;;;;;;33.06;29.20;101729.63;4941579;27;123209;-64
2023/05/18 11:09:55;;;;;;;;;;;;;;;31.33;30.45;101720.16;4936993;27;98182;-64
2023/05/18 11:12:21;;;;;;;;;;;;;;;31.66;29.74;101724.88;4955833;27;115831;-66
2023/05/18 11:14:54;;;;;;;;;;;;;;;30.60;30.72;101719.50;4954104;27;107285;-65
2023/05/18 11:17:29;;;;;;;;;;;;;;;30.64;30.59;101706.44;4960139;28;98060;-65
2023/05/18 11:20:07;;;;;;;;;;;;;;;29.49;31.47;101710.00;4943064;27;98088;-66
2023/05/18 11:22:45;;;;;;;;;;;;;;;29.20;31.53;101711.41;4956119;27;98156;-66
2023/05/18 11:25:24;;;;;;;;;;;;;;;28.95;31.16;101710.03;4940332;27;98244;-64
2023/05/18 11:27:50;;;;;;;;;;;;;;;28.46;31.33;101713.28;4975605;27;98481;-66
2023/05/18 11:30:32;;;;;;;;;;;;;;;28.22;31.40;101712.28;4955652;27;98244;-64
2023/05/18 11:33:28;;;;;;;;;;;;;;;27.88;31.78;101714.56;4954855;27;98293;-66
2023/05/18 11:36:01;;;;;;;;;;;;;;;27.10;32.19;101726.97;4935668;27;98526;-64
2023/05/18 11:38:53;;;;;;;;;;;;;;;26.74;32.33;101714.00;4958628;27;98367;-66
2023/05/18 11:41:58;;;;;;;;;;;;;;;26.54;32.38;101718.50;4939384;27;98153;-64
2023/05/18 11:44:24;;;;;;;;;;;;;;;26.70;31.86;101713.09;4944973;27;98453;-63
2023/05/18 11:46:52;;;;;;;;;;;;;;;26.78;31.75;101705.81;4936065;27;98162;-65
2023/05/18 11:49:32;;;;;;;;;;;;;;;26.75;31.86;101707.31;4944830;27;100078;-63
2023/05/18 11:52:01;;;;;;;;;;;;;;;26.66;31.69;101710.22;4952528;27;98078;-65
2023/05/18 11:54:27;;;;;;;;;;;;;;;26.58;31.96;101710.34;4957842;27;98138;-65
2023/05/18 11:56:53;;;;;;;;;;;;;;;26.43;31.90;101718.13;4941477;27;98391;-63
2023/05/18 11:59:30;;;;;;;;;;;;;;;26.22;31.92;101714.69;4941024;27;98599;-63
2023/05/18 12:01:59;;;;;;;;;;;;;;;26.42;31.92;101701.91;4940105;28;97952;-63
2023/05/18 12:04:25;;;;;;;;;;;;;;;26.67;31.34;101709.03;4940794;27;98404;-64
2023/05/18 12:06:53;;;;;;;;;;;;;;;26.34;31.50;101709.16;4940071;27;98561;-64
2023/05/18 12:09:20;;;;;;;;;;;;;;;25.88;31.78;101713.91;4954034;28;100747;-64
2023/05/18 12:11:46;;;;;;;;;;;;;;;25.57;32.23;101708.03;4935992;27;98252;-65
2023/05/18 12:14:12;;;;;;;;;;;;;;;25.43;32.28;101711.09;4951216;28;114990;-66
2023/05/18 12:16:41;;;;;;;;;;;;;;;25.35;31.95;101709.19;4957496;27;98716;-65
2023/05/18 12:19:08;;;;;;;;;;;;;;;25.24;32.21;101702.50;4926823;27;100033;-65
2023/05/18 12:21:37;;;;;;;;;;;;;;;25.14;32.20;101703.69;4946991;27;99002;-66
2023/05/18 12:24:04;;;;;;;;;;;;;;;25.01;32.12;101704.75;4939273;27;98418;-65
2023/05/18 12:26:30;;;;;;;;;;;;;;;24.85;32.01;101701.78;4940058;28;98037;-64
2023/05/18 12:29:00;;;;;;;;;;;;;;;24.56;32.20;101706.16;4957637;27;98326;-63
2023/05/18 12:31:27;;;;;;;;;;;;;;;24.22;32.37;101707.13;4941304;27;98033;-65
2023/05/18 12:33:53;;;;;;;;;;;;;;;23.98;32.63;101705.72;4942760;27;98331;-64
2023/05/18 12:36:20;;;;;;;;;;;;;;;23.86;32.72;101710.31;4944536;27;98224;-64
2023/05/18 12:38:51;;;;;;;;;;;;;;;23.78;32.40;101706.44;4944676;27;97988;-66
2023/05/18 12:41:27;;;;;;;;;;;;;;;23.65;32.51;101704.63;4944139;27;98441;-65